Time;durP1;ratioP1;P1;durP2;ratioP2;P2;SDS_P1;SDS_P2;PMS_P1;PMS_P2;Temp;Humidity;BMP_temperature;BMP_pressure;BME280_temperature;BME280_humidity;BME280_pressure;Samples;Min_cycle;Max_cycle;Signal;HPM_P1;HPM_P2
2021/01/28 00:02:18;;;;;;;6.70;6.03;;;11.30;86.90;;;;;;4953358;28;20054;-72
2021/01/28 00:04:44;;;;;;;7.05;6.35;;;11.30;87.00;;;;;;4950147;28;20134;-70
2021/01/28 00:07:10;;;;;;;8.60;7.75;;;11.30;87.00;;;;;;4947899;28;20554;-70
2021/01/28 00:09:36;;;;;;;6.75;6.07;;;11.30;87.00;;;;;;4948117;28;20035;-72
2021/01/28 00:12:02;;;;;;;8.52;7.78;;;11.30;87.00;;;;;;4946077;28;20027;-71
2021/01/28 00:14:29;;;;;;;7.43;6.72;;;11.30;87.00;;;;;;4973884;28;20059;-71
2021/01/28 00:16:55;;;;;;;7.18;6.47;;;11.30;87.00;;;;;;4977681;28;20037;-70
2021/01/28 00:19:21;;;;;;;7.60;6.90;;;11.30;87.00;;;;;;4967167;28;20401;-70
2021/01/28 00:21:47;;;;;;;8.20;7.45;;;11.30;87.00;;;;;;4930219;29;20042;-69
2021/01/28 00:24:13;;;;;;;7.38;6.63;;;11.30;86.90;;;;;;4945265;28;20130;-69
2021/01/28 00:26:39;;;;;;;7.50;6.38;;;11.30;86.90;;;;;;4946204;28;20404;-70
2021/01/28 00:29:05;;;;;;;7.40;6.55;;;11.30;86.90;;;;;;4954178;28;20125;-68
2021/01/28 00:31:31;;;;;;;6.80;6.20;;;11.30;87.00;;;;;;4966322;28;20121;-72
2021/01/28 00:33:57;;;;;;;8.57;7.20;;;11.30;86.90;;;;;;4956194;28;20044;-75
2021/01/28 00:36:24;;;;;;;7.60;6.75;;;11.30;87.00;;;;;;4946176;28;20038;-70
2021/01/28 00:38:50;;;;;;;9.15;7.57;;;11.30;87.00;;;;;;4946716;28;20031;-73
2021/01/28 00:41:16;;;;;;;8.02;7.32;;;11.30;87.00;;;;;;4929788;29;20081;-69
2021/01/28 00:43:42;;;;;;;6.97;6.38;;;11.30;86.90;;;;;;4946887;28;20190;-69
2021/01/28 00:46:08;;;;;;;7.47;6.78;;;11.30;87.00;;;;;;4945395;28;20054;-69
2021/01/28 00:48:35;;;;;;;8.02;7.22;;;11.30;87.00;;;;;;4945690;28;20039;-70
2021/01/28 00:51:03;;;;;;;7.47;6.78;;;11.30;87.00;;;;;;4945391;29;20417;-70
2021/01/28 00:53:29;;;;;;;8.23;7.35;;;11.30;87.00;;;;;;4946320;28;20027;-71
2021/01/28 00:55:56;;;;;;;7.65;6.88;;;11.30;87.00;;;;;;4936756;28;20033;-70
2021/01/28 00:58:33;;;;;;;7.47;6.78;;;11.30;87.00;;;;;;4964747;28;20070;-71
2021/01/28 01:01:01;;;;;;;8.40;7.50;;;11.30;87.00;;;;;;4981054;28;20034;-70
2021/01/28 01:03:28;;;;;;;7.70;7.10;;;11.30;87.00;;;;;;4964409;28;20386;-70
2021/01/28 01:05:55;;;;;;;8.02;6.75;;;11.30;87.00;;;;;;4965804;28;20031;-71
2021/01/28 01:08:25;;;;;;;6.68;6.18;;;11.30;87.00;;;;;;4980543;28;20106;-71
2021/01/28 01:10:59;;;;;;;6.90;5.90;;;11.30;87.00;;;;;;4949014;28;20035;-71
2021/01/28 01:13:31;;;;;;;6.60;6.00;;;11.30;87.00;;;;;;4964498;28;20038;-70
2021/01/28 01:16:20;;;;;;;7.28;6.45;;;11.30;87.00;;;;;;4961276;28;20042;-71
2021/01/28 01:18:56;;;;;;;6.55;5.95;;;11.30;87.00;;;;;;4977897;28;20038;-70
2021/01/28 01:21:25;;;;;;;6.95;6.25;;;11.30;86.90;;;;;;4980606;28;20026;-70
2021/01/28 01:24:09;;;;;;;6.88;6.28;;;11.30;87.00;;;;;;4964223;28;20047;-71
2021/01/28 01:26:35;;;;;;;6.65;6.05;;;11.30;87.00;;;;;;4965099;28;20034;-71
2021/01/28 01:29:01;;;;;;;6.20;5.57;;;11.30;87.00;;;;;;4963720;28;20039;-70
2021/01/28 01:31:49;;;;;;;6.93;6.22;;;11.30;87.00;;;;;;4964262;28;20034;-70
2021/01/28 01:34:16;;;;;;;8.05;5.78;;;11.30;87.00;;;;;;4976951;28;20032;-70
2021/01/28 01:36:42;;;;;;;7.78;5.93;;;11.30;87.00;;;;;;4946236;28;20035;-73
2021/01/28 01:39:08;;;;;;;6.18;5.45;;;11.30;87.00;;;;;;4954707;28;20031;-71
2021/01/28 01:41:42;;;;;;;5.68;5.15;;;11.30;87.00;;;;;;4945929;28;20262;-70
2021/01/28 01:44:13;;;;;;;5.97;5.38;;;11.30;87.00;;;;;;4957005;28;20173;-71
2021/01/28 01:46:42;;;;;;;6.10;5.50;;;11.30;87.00;;;;;;4964334;28;20054;-70
2021/01/28 01:49:19;;;;;;;5.72;5.22;;;11.30;87.00;;;;;;4963735;28;20063;-71
2021/01/28 01:51:45;;;;;;;6.45;5.85;;;11.30;87.00;;;;;;4980071;28;20100;-70
2021/01/28 01:54:36;;;;;;;5.35;4.88;;;11.30;87.10;;;;;;4964166;28;20042;-70
2021/01/28 01:57:10;;;;;;;5.18;4.70;;;11.30;87.00;;;;;;4944761;29;20058;-71
2021/01/28 01:59:57;;;;;;;5.55;4.95;;;11.30;87.00;;;;;;4956752;28;20122;-71
2021/01/28 02:02:46;;;;;;;6.55;5.43;;;11.30;87.10;;;;;;4964133;28;20081;-71
2021/01/28 02:05:54;;;;;;;7.75;5.20;;;11.30;87.00;;;;;;4923226;29;20152;-70
2021/01/28 02:08:39;;;;;;;4.85;4.45;;;11.30;87.00;;;;;;4948856;28;20031;-70
2021/01/28 02:11:28;;;;;;;4.55;4.15;;;11.30;87.00;;;;;;4965310;28;20027;-71
2021/01/28 02:14:26;;;;;;;5.10;4.47;;;11.30;87.00;;;;;;4950698;28;20054;-71
2021/01/28 02:17:10;;;;;;;5.35;4.85;;;11.30;87.00;;;;;;4975392;28;20137;-70
2021/01/28 02:20:45;;;;;;;5.07;4.57;;;11.30;87.00;;;;;;4965520;28;20037;-71
2021/01/28 02:23:33;;;;;;;4.45;4.05;;;11.30;87.00;;;;;;4964732;28;20430;-70
2021/01/28 02:26:01;;;;;;;4.88;4.40;;;11.30;87.00;;;;;;4947375;28;20390;-71
2021/01/28 02:28:27;;;;;;;4.82;4.43;;;11.30;87.00;;;;;;4963468;28;20582;-70
2021/01/28 02:30:58;;;;;;;4.60;4.20;;;11.30;87.00;;;;;;4961406;28;20525;-70
2021/01/28 02:33:55;;;;;;;5.10;4.53;;;11.30;87.00;;;;;;4961084;28;20066;-71
2021/01/28 02:36:29;;;;;;;4.70;4.18;;;11.30;87.10;;;;;;4952751;28;20035;-70
2021/01/28 02:38:57;;;;;;;8.13;4.93;;;11.30;87.10;;;;;;4954236;28;20027;-69
2021/01/28 02:41:24;;;;;;;4.68;4.28;;;11.30;87.10;;;;;;4968505;28;20035;-71
2021/01/28 02:44:06;;;;;;;6.95;4.60;;;11.30;87.10;;;;;;4969290;28;20046;-70
2021/01/28 02:46:57;;;;;;;4.40;4.00;;;11.30;87.10;;;;;;4950399;28;20468;-72
2021/01/28 02:49:50;;;;;;;4.32;3.92;;;11.30;87.10;;;;;;4962526;28;20047;-71
2021/01/28 02:52:17;;;;;;;4.70;4.30;;;11.30;87.10;;;;;;4955948;28;20027;-70
2021/01/28 02:54:52;;;;;;;4.28;3.88;;;11.30;87.10;;;;;;4972019;28;20030;-71
2021/01/28 02:57:18;;;;;;;6.85;3.90;;;11.40;87.30;;;;;;4972136;28;20482;-70
2021/01/28 02:59:51;;;;;;;4.07;3.75;;;11.40;87.30;;;;;;4971846;28;20031;-71
2021/01/28 03:02:19;;;;;;;4.20;3.80;;;11.40;87.30;;;;;;4973275;28;20027;-71
2021/01/28 03:04:46;;;;;;;6.20;4.63;;;11.40;87.30;;;;;;4955437;28;20138;-71
2021/01/28 03:07:23;;;;;;;4.28;3.90;;;11.40;87.30;;;;;;4972923;28;20022;-72
2021/01/28 03:09:49;;;;;;;4.45;3.72;;;11.40;87.30;;;;;;4973222;28;20042;-71
2021/01/28 03:12:38;;;;;;;5.88;3.72;;;11.40;87.30;;;;;;4972564;28;20482;-70
2021/01/28 03:15:12;;;;;;;3.80;3.50;;;11.40;87.20;;;;;;4974366;28;20476;-70
2021/01/28 03:17:43;;;;;;;5.32;3.90;;;11.40;87.30;;;;;;4990971;28;20488;-71
2021/01/28 03:20:12;;;;;;;3.67;3.35;;;11.40;87.30;;;;;;5007406;28;20061;-71
2021/01/28 03:22:40;;;;;;;4.65;3.85;;;11.40;87.30;;;;;;4990641;28;20077;-74
2021/01/28 03:25:21;;;;;;;3.80;3.50;;;11.40;87.30;;;;;;4990997;28;20050;-71
2021/01/28 03:27:48;;;;;;;3.83;3.28;;;11.40;87.30;;;;;;4990829;28;20421;-69
2021/01/28 03:30:20;;;;;;;4.00;3.60;;;11.40;87.30;;;;;;4990664;28;20037;-70
2021/01/28 03:32:46;;;;;;;7.03;3.50;;;11.40;87.30;;;;;;4990865;28;20054;-70
2021/01/28 03:35:14;;;;;;;4.57;3.35;;;11.40;87.30;;;;;;4990865;28;20136;-70
2021/01/28 03:37:40;;;;;;;3.50;3.20;;;11.40;87.30;;;;;;4990577;28;20249;-69
2021/01/28 03:40:08;;;;;;;3.65;3.35;;;11.40;87.30;;;;;;4990024;28;20041;-70
2021/01/28 03:42:34;;;;;;;3.42;3.03;;;11.40;87.30;;;;;;5006964;28;20506;-71
2021/01/28 03:45:00;;;;;;;3.80;3.50;;;11.40;87.40;;;;;;4990514;28;20049;-72
2021/01/28 03:47:31;;;;;;;3.90;3.22;;;11.40;87.40;;;;;;4973979;28;20046;-70
2021/01/28 03:50:23;;;;;;;3.22;2.75;;;11.40;87.30;;;;;;5003387;28;20034;-71
2021/01/28 03:53:11;;;;;;;3.60;3.10;;;11.40;87.30;;;;;;4990224;28;20038;-73
2021/01/28 03:55:52;;;;;;;3.63;3.33;;;11.50;87.50;;;;;;4991856;28;20074;-70
2021/01/28 03:58:18;;;;;;;4.38;2.90;;;11.50;87.50;;;;;;4991673;28;20066;-72
2021/01/28 04:00:53;;;;;;;3.50;3.20;;;11.50;87.50;;;;;;4990200;28;20022;-70
2021/01/28 04:03:20;;;;;;;3.47;3.17;;;11.50;87.50;;;;;;4975050;28;20034;-71
2021/01/28 04:06:14;;;;;;;4.00;2.90;;;11.50;87.50;;;;;;4970744;28;20446;-70
2021/01/28 04:09:07;;;;;;;3.45;2.70;;;11.50;87.50;;;;;;4963650;28;20383;-71
2021/01/28 04:11:51;;;;;;;4.65;3.30;;;11.50;87.50;;;;;;4971780;28;20057;-71
2021/01/28 04:14:43;;;;;;;4.00;3.28;;;11.50;87.50;;;;;;4971995;28;20404;-69
2021/01/28 04:17:09;;;;;;;3.78;3.08;;;11.50;87.50;;;;;;4970459;28;20035;-70
2021/01/28 04:19:36;;;;;;;4.43;2.95;;;11.50;87.50;;;;;;4970533;28;20086;-70
2021/01/28 04:22:02;;;;;;;3.15;2.78;;;11.50;87.50;;;;;;4970482;28;20130;-71
2021/01/28 04:24:30;;;;;;;4.00;2.55;;;11.50;87.50;;;;;;4986482;28;20073;-71
2021/01/28 04:26:56;;;;;;;4.38;2.78;;;11.50;87.50;;;;;;4970256;28;20133;-71
2021/01/28 04:29:45;;;;;;;4.03;3.00;;;11.50;87.50;;;;;;4970614;28;20081;-73
2021/01/28 04:32:19;;;;;;;3.97;3.00;;;11.50;87.50;;;;;;4986407;28;20035;-70
2021/01/28 04:35:11;;;;;;;4.00;2.72;;;11.50;87.50;;;;;;4971910;28;20044;-69
2021/01/28 04:37:38;;;;;;;3.88;2.83;;;11.50;87.50;;;;;;4954044;28;20034;-72
2021/01/28 04:40:20;;;;;;;5.60;3.17;;;11.50;87.50;;;;;;4971335;28;20034;-70
2021/01/28 04:42:49;;;;;;;5.43;3.00;;;11.50;87.50;;;;;;4954310;28;20058;-72
2021/01/28 04:45:24;;;;;;;7.28;3.55;;;11.50;87.50;;;;;;4986043;28;20106;-71
2021/01/28 04:48:00;;;;;;;4.90;2.88;;;11.50;87.50;;;;;;4986025;28;20075;-71
2021/01/28 04:50:54;;;;;;;4.60;2.53;;;11.50;87.50;;;;;;4985168;28;20143;-70
2021/01/28 04:53:39;;;;;;;7.03;3.50;;;11.50;87.50;;;;;;4985928;28;20050;-70
2021/01/28 04:56:14;;;;;;;10.35;3.00;;;11.50;87.50;;;;;;4986061;28;20073;-70
2021/01/28 04:59:18;;;;;;;8.00;3.22;;;11.50;87.50;;;;;;4986219;28;20066;-71
2021/01/28 05:01:44;;;;;;;5.28;2.47;;;11.50;87.50;;;;;;4969029;28;20137;-71
2021/01/28 05:04:36;;;;;;;5.68;2.90;;;11.50;87.50;;;;;;4983578;28;20058;-70
2021/01/28 05:07:10;;;;;;;4.03;2.97;;;11.50;87.50;;;;;;4985555;28;20023;-73
2021/01/28 05:10:18;;;;;;;4.72;2.63;;;11.50;87.50;;;;;;4988790;28;20046;-72
2021/01/28 05:13:07;;;;;;;7.45;3.00;;;11.50;87.60;;;;;;4971548;28;20059;-71
2021/01/28 05:15:48;;;;;;;3.55;2.35;;;11.50;87.50;;;;;;4961364;28;20571;-71
2021/01/28 05:18:36;;;;;;;4.63;2.17;;;11.50;87.50;;;;;;4990474;28;20037;-71
2021/01/28 05:21:23;;;;;;;4.28;2.65;;;11.50;87.50;;;;;;4990297;28;20129;-71
2021/01/28 05:24:43;;;;;;;7.70;3.08;;;11.50;87.50;;;;;;4996577;28;20046;-71
2021/01/28 05:27:18;;;;;;;6.30;2.65;;;11.50;87.60;;;;;;4989940;28;20122;-72
2021/01/28 05:29:46;;;;;;;5.53;2.70;;;11.40;87.30;;;;;;4990030;28;20245;-71
2021/01/28 05:32:36;;;;;;;8.43;2.80;;;11.50;87.50;;;;;;4988554;28;20438;-72
2021/01/28 05:35:37;;;;;;;7.00;2.63;;;11.50;87.60;;;;;;4968046;28;20022;-71
2021/01/28 05:38:46;;;;;;;4.53;2.83;;;11.50;87.50;;;;;;4981248;28;20070;-70
2021/01/28 05:41:39;;;;;;;7.40;3.33;;;11.50;87.50;;;;;;4980964;28;20130;-72
2021/01/28 05:44:29;;;;;;;8.27;2.40;;;11.50;87.60;;;;;;4957438;28;20042;-71
2021/01/28 05:47:12;;;;;;;6.90;3.28;;;11.40;87.40;;;;;;4958223;28;20043;-68
2021/01/28 05:50:27;;;;;;;10.55;3.10;;;11.40;87.40;;;;;;4953522;28;20027;-71
2021/01/28 05:53:14;;;;;;;5.97;2.88;;;11.40;87.40;;;;;;4958096;28;20745;-70
2021/01/28 05:55:46;;;;;;;8.30;3.33;;;11.40;87.40;;;;;;4957018;28;20157;-69
2021/01/28 05:58:24;;;;;;;8.20;3.70;;;11.40;87.40;;;;;;4957167;28;20027;-71
2021/01/28 06:01:06;;;;;;;9.40;3.50;;;11.40;87.40;;;;;;4956579;28;20031;-70
2021/01/28 06:04:02;;;;;;;5.15;3.25;;;11.40;87.40;;;;;;4956003;28;20063;-71
2021/01/28 06:07:21;;;;;;;6.93;3.00;;;11.40;87.50;;;;;;4965205;28;20035;-70
2021/01/28 06:10:34;;;;;;;10.15;3.70;;;11.40;87.40;;;;;;4949394;28;20039;-71
2021/01/28 06:13:26;;;;;;;4.75;3.00;;;11.40;87.50;;;;;;4962183;28;20046;-79
2021/01/28 06:16:13;;;;;;;10.38;4.35;;;11.40;87.40;;;;;;4967234;28;20046;-71
2021/01/28 06:18:53;;;;;;;11.60;3.65;;;11.40;87.40;;;;;;4963520;28;20517;-71
2021/01/28 06:21:41;;;;;;;9.50;3.50;;;11.40;87.40;;;;;;4954982;28;20588;-75
2021/01/28 06:24:51;;;;;;;12.93;4.07;;;11.40;87.40;;;;;;4968466;28;20089;-73
2021/01/28 06:27:52;;;;;;;8.73;3.97;;;11.40;87.40;;;;;;4955666;28;20322;-72
2021/01/28 06:30:46;;;;;;;7.57;3.97;;;11.40;87.50;;;;;;4944713;29;20035;-72
2021/01/28 06:33:37;;;;;;;9.30;3.95;;;11.40;87.50;;;;;;4963605;28;20058;-78
2021/01/28 06:36:44;;;;;;;15.27;4.50;;;11.40;87.50;;;;;;4951029;28;20039;-71
2021/01/28 06:39:46;;;;;;;14.73;5.00;;;11.40;87.50;;;;;;4951046;28;20031;-75
2021/01/28 06:42:40;;;;;;;17.42;5.70;;;11.40;87.50;;;;;;4956378;28;20038;-77
2021/01/28 06:45:32;;;;;;;17.90;5.20;;;11.50;87.80;;;;;;4967454;28;20047;-73
2021/01/28 06:48:30;;;;;;;23.08;5.20;;;11.50;87.70;;;;;;4958080;28;20050;-71
2021/01/28 06:51:36;;;;;;;14.13;4.95;;;11.40;87.60;;;;;;4955835;28;20032;-71
2021/01/28 06:54:12;;;;;;;15.50;5.03;;;11.50;87.80;;;;;;4967434;28;20105;-73
2021/01/28 06:57:36;;;;;;;19.70;6.38;;;11.50;87.90;;;;;;4950298;28;20198;-76
2021/01/28 07:00:36;;;;;;;14.75;5.47;;;11.50;87.90;;;;;;4968303;28;20110;-70
2021/01/28 07:03:16;;;;;;;23.23;5.93;;;11.50;88.00;;;;;;4955381;28;20615;-71
2021/01/28 07:06:02;;;;;;;20.48;6.10;;;11.50;88.00;;;;;;4978580;28;20042;-73
2021/01/28 07:08:47;;;;;;;23.90;6.57;;;11.50;88.00;;;;;;4970936;28;20332;-71
2021/01/28 07:11:38;;;;;;;23.98;7.20;;;11.50;88.00;;;;;;4949887;28;20062;-73
2021/01/28 07:14:20;;;;;;;18.85;5.32;;;11.50;88.00;;;;;;4951633;28;20118;-71
2021/01/28 07:17:22;;;;;;;18.25;5.18;;;11.50;88.00;;;;;;4977347;28;20474;-71
2021/01/28 07:20:00;;;;;;;21.58;5.35;;;11.50;88.10;;;;;;4967434;28;20425;-71
2021/01/28 07:22:39;;;;;;;22.70;6.82;;;11.50;88.20;;;;;;4979262;28;20444;-71
2021/01/28 07:25:32;;;;;;;18.02;5.88;;;11.50;88.20;;;;;;4946954;29;20043;-70
2021/01/28 07:28:01;;;;;;;21.27;6.72;;;11.50;88.20;;;;;;4950547;28;20031;-72
2021/01/28 07:31:08;;;;;;;23.25;5.75;;;11.50;88.70;;;;;;4950333;28;20130;-70
2021/01/28 07:33:40;;;;;;;23.85;5.72;;;11.50;88.30;;;;;;4908514;29;20051;-72
2021/01/28 07:36:45;;;;;;;20.30;5.97;;;11.50;88.30;;;;;;4925487;29;20035;-71
2021/01/28 07:39:29;;;;;;;19.17;6.38;;;11.40;88.10;;;;;;4942299;28;20047;-71
2021/01/28 07:42:33;;;;;;;28.73;6.38;;;11.40;88.10;;;;;;4945481;28;20045;-72
2021/01/28 07:45:29;;;;;;;22.95;6.85;;;11.50;88.30;;;;;;4948025;28;20039;-70
2021/01/28 07:48:23;;;;;;;25.85;7.28;;;11.50;88.40;;;;;;4963636;28;20070;-72
2021/01/28 07:51:30;;;;;;;21.98;7.50;;;11.50;88.30;;;;;;4931784;29;20038;-73
2021/01/28 07:53:58;;;;;;;23.70;7.60;;;11.50;88.40;;;;;;4974593;28;20113;-72
2021/01/28 07:56:36;;;;;;;22.42;7.32;;;11.50;88.40;;;;;;4946725;28;20151;-71
2021/01/28 07:59:12;;;;;;;25.83;6.97;;;11.50;88.50;;;;;;4943065;28;20038;-71
2021/01/28 08:01:42;;;;;;;19.17;7.22;;;11.50;88.50;;;;;;4967131;28;20034;-72
2021/01/28 08:04:25;;;;;;;21.98;6.78;;;11.50;88.50;;;;;;4966954;28;20206;-71
2021/01/28 08:06:53;;;;;;;29.60;8.13;;;11.50;88.50;;;;;;4965435;28;20034;-71
2021/01/28 08:09:19;;;;;;;28.13;8.35;;;11.50;88.50;;;;;;4965220;28;20054;-72
2021/01/28 08:11:54;;;;;;;25.98;7.45;;;11.60;88.70;;;;;;4965750;28;20050;-74
2021/01/28 08:14:34;;;;;;;22.95;7.88;;;11.60;88.70;;;;;;4965113;28;20030;-73
2021/01/28 08:17:01;;;;;;;22.42;7.57;;;11.60;88.70;;;;;;4981240;28;20124;-71
2021/01/28 08:19:28;;;;;;;14.40;6.22;;;11.60;88.70;;;;;;4968771;28;20042;-71
2021/01/28 08:22:26;;;;;;;29.08;7.32;;;11.60;88.70;;;;;;4981647;28;20119;-72
2021/01/28 08:24:57;;;;;;;19.65;6.28;;;11.60;88.80;;;;;;4933576;28;20047;-70
2021/01/28 08:27:38;;;;;;;23.27;6.80;;;11.60;88.70;;;;;;4949299;28;20026;-71
2021/01/28 08:30:17;;;;;;;20.98;6.57;;;11.60;88.80;;;;;;4961923;28;20121;-71
2021/01/28 08:32:45;;;;;;;31.92;7.80;;;11.60;88.80;;;;;;4967386;28;20482;-73
2021/01/28 08:35:22;;;;;;;29.45;8.45;;;11.60;88.70;;;;;;4964415;28;20554;-71
2021/01/28 08:37:49;;;;;;;23.45;6.80;;;11.60;88.80;;;;;;4964546;28;20042;-70
2021/01/28 08:40:21;;;;;;;26.23;7.70;;;11.60;88.70;;;;;;4966283;28;20666;-71
2021/01/28 08:42:49;;;;;;;29.23;8.15;;;11.60;88.80;;;;;;4964704;28;20229;-70
2021/01/28 08:45:19;;;;;;;31.50;7.70;;;11.60;88.80;;;;;;4965149;28;20189;-71
2021/01/28 08:48:04;;;;;;;28.20;7.13;;;11.60;88.80;;;;;;4965928;28;20450;-70
2021/01/28 08:50:31;;;;;;;28.35;8.30;;;11.60;88.90;;;;;;4964845;28;20351;-70
2021/01/28 08:53:16;;;;;;;32.53;8.82;;;11.60;88.80;;;;;;4975011;28;20037;-71
2021/01/28 08:55:44;;;;;;;18.17;7.32;;;11.60;88.80;;;;;;4966381;28;20038;-70
2021/01/28 08:58:16;;;;;;;21.40;8.48;;;11.60;88.80;;;;;;4964670;28;20035;-70
2021/01/28 09:00:48;;;;;;;29.15;8.27;;;11.60;88.80;;;;;;4964742;28;20142;-71
2021/01/28 09:03:33;;;;;;;29.45;8.98;;;11.70;89.00;;;;;;4964573;28;20125;-71
2021/01/28 09:05:59;;;;;;;;;;;11.70;89.00;;;;;;4965069;28;20042;-70
2021/01/28 09:08:29;;;;;;;31.30;8.95;;;11.70;89.00;;;;;;4957279;28;19937;-72
2021/01/28 09:11:07;;;;;;;29.00;8.68;;;11.70;88.90;;;;;;4960042;28;20035;-71
2021/01/28 09:13:33;;;;;;;27.15;8.45;;;11.70;88.90;;;;;;4952805;28;20043;-70
2021/01/28 09:16:11;;;;;;;26.98;7.75;;;11.70;88.90;;;;;;4960206;28;20050;-72
2021/01/28 09:18:41;;;;;;;27.83;8.20;;;11.70;88.90;;;;;;4959372;28;20043;-72
2021/01/28 09:21:15;;;;;;;34.85;8.30;;;11.80;89.10;;;;;;4964749;28;20041;-71
2021/01/28 09:23:56;;;;;;;27.65;9.40;;;11.80;89.10;;;;;;4948560;28;20561;-71
2021/01/28 09:26:30;;;;;;;32.88;8.68;;;11.80;89.10;;;;;;4964342;28;20038;-70
2021/01/28 09:29:07;;;;;;;29.38;9.05;;;11.80;89.00;;;;;;4959616;28;20027;-72
2021/01/28 09:31:33;;;;;;;28.92;9.05;;;11.80;89.10;;;;;;4964822;28;20043;-70
2021/01/28 09:34:16;;;;;;;28.60;9.15;;;11.90;89.30;;;;;;4973333;28;20038;-71
2021/01/28 09:36:50;;;;;;;32.75;9.15;;;11.90;89.30;;;;;;4961248;28;20038;-71
2021/01/28 09:39:44;;;;;;;29.90;8.50;;;11.90;89.20;;;;;;4958394;28;20022;-70
2021/01/28 09:42:33;;;;;;;26.55;8.32;;;12.00;89.40;;;;;;4945808;28;20030;-71
2021/01/28 09:45:05;;;;;;;36.42;10.23;;;12.00;89.30;;;;;;4965007;28;20519;-71
2021/01/28 09:47:31;;;;;;;35.33;9.70;;;12.00;89.30;;;;;;4962965;28;20047;-72
2021/01/28 09:50:00;;;;;;;35.72;9.85;;;12.00;89.20;;;;;;4948226;28;20125;-73
2021/01/28 09:52:45;;;;;;;36.47;8.35;;;12.00;89.30;;;;;;4966114;28;20094;-71
2021/01/28 09:55:18;;;;;;;34.38;8.10;;;12.00;89.20;;;;;;4963993;28;20041;-71
2021/01/28 09:57:44;;;;;;;32.72;9.15;;;12.10;89.30;;;;;;4964363;28;20180;-73
2021/01/28 10:00:14;;;;;;;42.08;10.32;;;12.10;89.30;;;;;;4964036;28;20066;-72
2021/01/28 10:02:49;;;;;;;28.50;8.57;;;12.10;89.30;;;;;;4976744;28;20380;-72
2021/01/28 10:05:22;;;;;;;28.63;8.10;;;12.10;89.30;;;;;;4944725;28;20047;-72
2021/01/28 10:07:49;;;;;;;32.38;9.13;;;12.20;89.40;;;;;;4930798;28;20367;-71
2021/01/28 10:10:17;;;;;;;35.72;9.20;;;12.20;89.40;;;;;;4964053;28;20050;-72
2021/01/28 10:12:43;;;;;;;46.45;10.25;;;12.30;89.50;;;;;;4963879;28;20023;-71
2021/01/28 10:15:11;;;;;;;35.53;9.75;;;12.30;89.50;;;;;;4963496;28;20431;-72
2021/01/28 10:17:37;;;;;;;40.85;9.88;;;12.30;89.40;;;;;;4947462;28;20085;-71
2021/01/28 10:20:05;;;;;;;39.83;10.90;;;12.40;89.50;;;;;;4980103;28;20026;-71
2021/01/28 10:22:35;;;;;;;34.50;10.75;;;12.40;89.50;;;;;;4965042;28;20478;-72
2021/01/28 10:25:01;;;;;;;47.38;11.65;;;12.50;89.60;;;;;;4965101;28;20070;-71
2021/01/28 10:27:27;;;;;;;37.45;11.25;;;12.50;89.50;;;;;;4965330;28;20035;-72
2021/01/28 10:29:53;;;;;;;37.20;10.18;;;12.50;89.50;;;;;;4964239;28;20462;-71
2021/01/28 10:32:18;;;;;;;41.20;11.80;;;12.60;89.60;;;;;;4963841;28;20027;-72
2021/01/28 10:34:44;;;;;;;44.08;12.05;;;12.60;89.50;;;;;;4945879;28;20102;-72
2021/01/28 10:37:11;;;;;;;46.58;13.13;;;12.60;89.40;;;;;;4944273;28;20035;-73
2021/01/28 10:39:37;;;;;;;29.60;10.05;;;12.60;89.90;;;;;;4945235;28;20035;-72
2021/01/28 10:42:04;;;;;;;44.90;10.80;;;12.60;89.40;;;;;;4945663;28;20035;-71
2021/01/28 10:44:30;;;;;;;33.97;9.65;;;12.60;89.30;;;;;;4946658;28;20042;-72
2021/01/28 10:46:57;;;;;;;46.13;10.63;;;12.60;89.30;;;;;;4963671;28;20225;-72
2021/01/28 10:49:23;;;;;;;41.95;10.77;;;12.70;89.50;;;;;;4963230;28;20135;-71
2021/01/28 10:51:49;;;;;;;36.42;11.05;;;12.70;89.40;;;;;;4963159;28;20027;-72
2021/01/28 10:54:16;;;;;;;46.30;12.02;;;12.80;89.60;;;;;;4964372;28;20130;-74
2021/01/28 10:56:43;;;;;;;39.45;11.65;;;12.80;89.50;;;;;;4963550;28;20125;-71
2021/01/28 10:59:09;;;;;;;28.10;9.77;;;12.90;89.70;;;;;;4964797;28;20082;-72
2021/01/28 11:01:35;;;;;;;34.55;10.93;;;12.90;89.60;;;;;;4968844;28;20039;-71
2021/01/28 11:04:01;;;;;;;40.05;11.30;;;13.00;89.70;;;;;;4967812;28;20132;-72
2021/01/28 11:06:27;;;;;;;33.72;9.90;;;13.00;89.60;;;;;;4968240;28;20427;-72
2021/01/28 11:08:53;;;;;;;40.03;11.43;;;13.10;89.70;;;;;;4946859;28;20034;-71
2021/01/28 11:11:19;;;;;;;42.65;10.90;;;13.10;89.60;;;;;;4962151;28;20049;-72
2021/01/28 11:13:47;;;;;;;39.97;11.45;;;13.20;89.70;;;;;;4960115;28;20513;-73
2021/01/28 11:16:13;;;;;;;43.70;11.07;;;13.20;89.60;;;;;;4967820;28;20096;-73
2021/01/28 11:18:39;;;;;;;35.08;10.05;;;13.30;89.50;;;;;;4970556;28;20042;-74
2021/01/28 11:21:05;;;;;;;39.22;11.18;;;13.30;89.40;;;;;;4948400;28;20118;-72
2021/01/28 11:23:31;;;;;;;44.80;12.60;;;13.30;89.30;;;;;;4948527;28;20039;-74
2021/01/28 11:25:57;;;;;;;38.83;10.02;;;13.30;89.20;;;;;;4947260;28;20046;-74
2021/01/28 11:28:23;;;;;;;39.08;11.23;;;13.30;89.10;;;;;;4937423;28;20031;-73
2021/01/28 11:30:49;;;;;;;38.15;11.23;;;13.40;89.30;;;;;;4982610;28;20030;-73
2021/01/28 11:33:15;;;;;;;40.80;12.07;;;13.40;89.20;;;;;;4967171;28;20031;-73
2021/01/28 11:35:41;;;;;;;36.50;9.90;;;13.50;89.30;;;;;;4966098;28;20483;-73
2021/01/28 11:38:08;;;;;;;32.88;10.65;;;13.50;89.20;;;;;;4966180;28;20212;-76
2021/01/28 11:40:35;;;;;;;43.42;12.13;;;13.50;89.10;;;;;;4966240;28;20281;-77
2021/01/28 11:43:04;;;;;;;37.60;10.30;;;13.50;89.00;;;;;;4966101;28;20035;-73
2021/01/28 11:45:32;;;;;;;30.70;8.93;;;13.50;89.00;;;;;;4965627;28;20081;-75
2021/01/28 11:47:58;;;;;;;41.90;10.75;;;13.60;89.10;;;;;;4967048;28;20049;-74
2021/01/28 11:50:25;;;;;;;30.15;8.25;;;13.60;89.00;;;;;;4968327;28;20038;-74
2021/01/28 11:52:51;;;;;;;42.53;11.02;;;13.60;89.10;;;;;;4965003;28;20031;-74
2021/01/28 11:55:20;;;;;;;37.95;9.98;;;13.70;89.30;;;;;;4931608;29;20356;-74
2021/01/28 11:57:46;;;;;;;32.25;9.25;;;13.80;89.30;;;;;;4930817;28;20471;-74
2021/01/28 12:00:14;;;;;;;36.50;9.73;;;13.90;89.20;;;;;;4931452;29;20098;-76
2021/01/28 12:02:41;;;;;;;33.65;9.38;;;13.90;89.10;;;;;;4950658;28;20035;-74
2021/01/28 12:05:09;;;;;;;35.17;10.00;;;14.00;89.20;;;;;;4948204;28;20046;-75
2021/01/28 12:07:35;;;;;;;38.15;11.95;;;14.10;89.20;;;;;;4947771;28;20027;-73
2021/01/28 12:10:04;;;;;;;30.10;10.00;;;14.10;89.10;;;;;;4945826;28;20035;-74
2021/01/28 12:12:30;;;;;;;37.30;9.50;;;14.20;89.10;;;;;;4948423;28;20039;-73
2021/01/28 12:14:56;;;;;;;34.28;9.95;;;14.10;88.90;;;;;;4947228;28;20058;-75
2021/01/28 12:17:23;;;;;;;27.48;8.93;;;14.20;88.90;;;;;;4930662;29;20114;-73
2021/01/28 12:19:49;;;;;;;38.05;11.07;;;14.10;88.70;;;;;;4946722;28;20062;-74
2021/01/28 12:22:15;;;;;;;38.08;9.68;;;14.20;88.90;;;;;;4946238;28;20039;-73
2021/01/28 12:24:41;;;;;;;25.63;8.80;;;14.10;88.70;;;;;;4945767;28;20138;-73
2021/01/28 12:27:07;;;;;;;23.27;9.35;;;14.20;88.90;;;;;;4946236;28;20113;-73
2021/01/28 12:29:33;;;;;;;26.05;8.35;;;14.10;88.70;;;;;;4962588;28;20184;-73
2021/01/28 12:31:59;;;;;;;29.60;8.55;;;14.20;88.80;;;;;;4966547;28;20031;-74
2021/01/28 12:34:26;;;;;;;27.48;8.38;;;14.20;88.80;;;;;;4966409;28;20031;-73
2021/01/28 12:36:53;;;;;;;27.30;8.75;;;14.20;88.70;;;;;;4966323;28;20290;-72
2021/01/28 12:39:20;;;;;;;32.38;9.38;;;14.20;88.70;;;;;;4964506;28;20390;-73
2021/01/28 12:41:46;;;;;;;29.13;8.02;;;14.20;88.60;;;;;;4966707;28;20049;-72
2021/01/28 12:44:11;;;;;;;30.02;9.27;;;14.20;88.50;;;;;;4964653;28;20121;-72
2021/01/28 12:46:38;;;;;;;25.45;7.70;;;14.20;88.50;;;;;;4966533;28;20090;-72
2021/01/28 12:49:04;;;;;;;26.42;7.63;;;14.10;88.30;;;;;;4964564;28;20054;-73
2021/01/28 12:51:30;;;;;;;30.13;9.27;;;14.20;88.40;;;;;;4966606;28;20340;-73
2021/01/28 12:53:56;;;;;;;24.30;8.18;;;14.10;88.20;;;;;;4965425;28;20035;-73
2021/01/28 12:56:23;;;;;;;26.05;7.93;;;14.10;88.20;;;;;;4966620;28;20061;-73
2021/01/28 12:58:49;;;;;;;22.83;7.32;;;14.10;88.20;;;;;;4964855;28;20134;-73
2021/01/28 13:01:15;;;;;;;29.33;8.23;;;14.10;88.20;;;;;;4964934;28;20142;-73
2021/01/28 13:03:41;;;;;;;17.25;6.93;;;14.10;88.20;;;;;;4966409;28;20403;-73
2021/01/28 13:06:07;;;;;;;34.13;8.85;;;14.10;88.20;;;;;;4966161;28;20378;-72
2021/01/28 13:08:33;;;;;;;26.27;8.10;;;14.10;88.10;;;;;;4964381;28;20498;-72
2021/01/28 13:10:59;;;;;;;24.98;7.15;;;14.10;88.10;;;;;;4964648;28;20030;-74
2021/01/28 13:13:25;;;;;;;22.48;7.30;;;14.10;88.00;;;;;;4947896;28;20030;-76
2021/01/28 13:15:51;;;;;;;20.92;6.40;;;14.10;88.00;;;;;;4971030;28;20026;-79
2021/01/28 13:18:17;;;;;;;28.00;8.23;;;14.10;87.90;;;;;;4992090;28;20046;-74
2021/01/28 13:20:43;;;;;;;21.55;6.97;;;14.10;87.90;;;;;;4945069;28;20031;-72
2021/01/28 13:23:10;;;;;;;14.95;6.47;;;14.00;87.80;;;;;;4952290;28;20501;-74
2021/01/28 13:25:36;;;;;;;24.98;7.82;;;14.10;87.90;;;;;;4964384;28;20042;-75